sensor_id;sensor_type;location;lat;lon;timestamp;pressure;altitude;pressure_sealevel;temperature;humidity
65546;BME280;52177;55.968;37.498;2023-04-30T00:00:27;100099.81;;;2.42;71.57
65546;BME280;52177;55.968;37.498;2023-04-30T00:00:57;100095.38;;;2.43;71.70
65546;BME280;52177;55.968;37.498;2023-04-30T00:01:27;100099.81;;;2.42;71.76
65546;BME280;52177;55.968;37.498;2023-04-30T00:01:59;100100.53;;;2.44;71.81
65546;BME280;52177;55.968;37.498;2023-04-30T00:02:29;100101.38;;;2.45;71.78
65546;BME280;52177;55.968;37.498;2023-04-30T00:02:59;100102.22;;;2.45;71.50
65546;BME280;52177;55.968;37.498;2023-04-30T00:03:29;100104.13;;;2.43;71.29
65546;BME280;52177;55.968;37.498;2023-04-30T00:04:00;100100.06;;;2.39;71.30
65546;BME280;52177;55.968;37.498;2023-04-30T00:04:30;100102.06;;;2.36;71.30
65546;BME280;52177;55.968;37.498;2023-04-30T00:05:01;100107.56;;;2.32;71.47
65546;BME280;52177;55.968;37.498;2023-04-30T00:05:31;100106.19;;;2.27;71.78
65546;BME280;52177;55.968;37.498;2023-04-30T00:06:01;100107.16;;;2.26;72.12
65546;BME280;52177;55.968;37.498;2023-04-30T00:06:32;100108.13;;;2.25;72.09
65546;BME280;52177;55.968;37.498;2023-04-30T00:07:02;100109.19;;;2.22;72.15
65546;BME280;52177;55.968;37.498;2023-04-30T00:07:33;100102.47;;;2.18;72.07
65546;BME280;52177;55.968;37.498;2023-04-30T00:08:03;100107.00;;;2.16;72.23
65546;BME280;52177;55.968;37.498;2023-04-30T00:08:34;100102.00;;;2.13;72.29
65546;BME280;52177;55.968;37.498;2023-04-30T00:09:04;100113.44;;;2.12;72.36
65546;BME280;52177;55.968;37.498;2023-04-30T00:09:34;100110.09;;;2.10;72.51
65546;BME280;52177;55.968;37.498;2023-04-30T00:10:05;100110.22;;;2.08;72.55
65546;BME280;52177;55.968;37.498;2023-04-30T00:10:36;100104.09;;;2.08;72.59
65546;BME280;52177;55.968;37.498;2023-04-30T00:11:06;100118.09;;;2.08;72.76
65546;BME280;52177;55.968;37.498;2023-04-30T00:11:36;100110.22;;;2.08;72.76
65546;BME280;52177;55.968;37.498;2023-04-30T00:12:07;100114.50;;;2.09;72.67
65546;BME280;52177;55.968;37.498;2023-04-30T00:12:37;100111.78;;;2.11;72.66
65546;BME280;52177;55.968;37.498;2023-04-30T00:13:08;100109.16;;;2.11;72.63
65546;BME280;52177;55.968;37.498;2023-04-30T00:13:39;100105.56;;;2.12;72.59
65546;BME280;52177;55.968;37.498;2023-04-30T00:14:11;100108.09;;;2.14;72.72
65546;BME280;52177;55.968;37.498;2023-04-30T00:14:42;100109.88;;;2.13;72.65
65546;BME280;52177;55.968;37.498;2023-04-30T00:15:12;100114.28;;;2.13;72.78
65546;BME280;52177;55.968;37.498;2023-04-30T00:15:42;100109.00;;;2.13;72.70
65546;BME280;52177;55.968;37.498;2023-04-30T00:16:13;100111.78;;;2.11;72.66
65546;BME280;52177;55.968;37.498;2023-04-30T00:16:43;100107.34;;;2.11;72.81
65546;BME280;52177;55.968;37.498;2023-04-30T00:17:13;100109.88;;;2.13;72.71
65546;BME280;52177;55.968;37.498;2023-04-30T00:17:44;100115.97;;;2.14;72.59
65546;BME280;52177;55.968;37.498;2023-04-30T00:18:15;100117.53;;;2.16;72.52
65546;BME280;52177;55.968;37.498;2023-04-30T00:18:45;100114.91;;;2.16;72.55
65546;BME280;52177;55.968;37.498;2023-04-30T00:19:16;100116.69;;;2.16;72.25
65546;BME280;52177;55.968;37.498;2023-04-30T00:19:46;100119.19;;;2.17;72.33
65546;BME280;52177;55.968;37.498;2023-04-30T00:20:16;100112.03;;;2.19;72.32
65546;BME280;52177;55.968;37.498;2023-04-30T00:20:46;100116.47;;;2.19;72.54
65546;BME280;52177;55.968;37.498;2023-04-30T00:21:17;100117.19;;;2.21;72.44
65546;BME280;52177;55.968;37.498;2023-04-30T00:21:47;100119.00;;;2.20;72.40
65546;BME280;52177;55.968;37.498;2023-04-30T00:22:18;100121.63;;;2.20;72.53
65546;BME280;52177;55.968;37.498;2023-04-30T00:22:48;100119.09;;;2.19;72.59
65546;BME280;52177;55.968;37.498;2023-04-30T00:23:18;100126.25;;;2.17;72.53
65546;BME280;52177;55.968;37.498;2023-04-30T00:23:49;100123.63;;;2.17;72.44
65546;BME280;52177;55.968;37.498;2023-04-30T00:24:19;100126.25;;;2.17;72.38
65546;BME280;52177;55.968;37.498;2023-04-30T00:24:49;100118.47;;;2.15;72.47
65546;BME280;52177;55.968;37.498;2023-04-30T00:25:20;100123.72;;;2.15;72.32
65546;BME280;52177;55.968;37.498;2023-04-30T00:25:53;100129.00;;;2.15;72.15
65546;BME280;52177;55.968;37.498;2023-04-30T00:26:23;100120.25;;;2.15;72.17
65546;BME280;52177;55.968;37.498;2023-04-30T00:26:54;100124.69;;;2.14;71.92
65546;BME280;52177;55.968;37.498;2023-04-30T00:27:24;100119.34;;;2.16;71.87
65546;BME280;52177;55.968;37.498;2023-04-30T00:27:55;100129.84;;;2.16;71.75
65546;BME280;52177;55.968;37.498;2023-04-30T00:28:25;100128.16;;;2.15;71.71
65546;BME280;52177;55.968;37.498;2023-04-30T00:28:56;100127.44;;;2.13;71.64
65546;BME280;52177;55.968;37.498;2023-04-30T00:29:26;100126.69;;;2.10;71.77
65546;BME280;52177;55.968;37.498;2023-04-30T00:29:57;100133.75;;;2.10;71.82
65546;BME280;52177;55.968;37.498;2023-04-30T00:30:27;100126.69;;;2.10;71.82
65546;BME280;52177;55.968;37.498;2023-04-30T00:30:58;100132.81;;;2.11;71.75
65546;BME280;52177;55.968;37.498;2023-04-30T00:31:28;100129.31;;;2.10;71.69
65546;BME280;52177;55.968;37.498;2023-04-30T00:31:58;100131.00;;;2.11;71.46
65546;BME280;52177;55.968;37.498;2023-04-30T00:32:29;100129.22;;;2.12;71.47
65546;BME280;52177;55.968;37.498;2023-04-30T00:32:59;100133.53;;;2.13;71.53
65546;BME280;52177;55.968;37.498;2023-04-30T00:33:29;100131.75;;;2.14;71.42
65546;BME280;52177;55.968;37.498;2023-04-30T00:34:00;100127.31;;;2.14;71.25
65546;BME280;52177;55.968;37.498;2023-04-30T00:34:30;100134.25;;;2.15;71.24
65546;BME280;52177;55.968;37.498;2023-04-30T00:35:01;100131.63;;;2.15;71.16
65546;BME280;52177;55.968;37.498;2023-04-30T00:35:32;100129.84;;;2.16;71.15
65546;BME280;52177;55.968;37.498;2023-04-30T00:36:02;100127.09;;;2.17;71.27
65546;BME280;52177;55.968;37.498;2023-04-30T00:36:33;100123.53;;;2.18;71.22
65546;BME280;52177;55.968;37.498;2023-04-30T00:37:03;100129.63;;;2.19;71.04
65546;BME280;52177;55.968;37.498;2023-04-30T00:37:34;100127.91;;;2.18;70.95
65546;BME280;52177;55.968;37.498;2023-04-30T00:38:04;100132.34;;;2.17;70.99
65546;BME280;52177;55.968;37.498;2023-04-30T00:38:34;100130.69;;;2.16;71.05
65546;BME280;52177;55.968;37.498;2023-04-30T00:39:05;100133.31;;;2.16;71.11
65546;BME280;52177;55.968;37.498;2023-04-30T00:39:35;100122.78;;;2.16;71.32
65546;BME280;52177;55.968;37.498;2023-04-30T00:40:06;100134.25;;;2.15;71.39
65546;BME280;52177;55.968;37.498;2023-04-30T00:40:37;100129.94;;;2.14;71.41
65546;BME280;52177;55.968;37.498;2023-04-30T00:41:09;100126.59;;;2.12;71.38
65546;BME280;52177;55.968;37.498;2023-04-30T00:41:40;100121.44;;;2.10;71.91
65546;BME280;52177;55.968;37.498;2023-04-30T00:42:10;100126.81;;;2.09;71.90
65546;BME280;52177;55.968;37.498;2023-04-30T00:42:40;100123.47;;;2.07;72.15
65546;BME280;52177;55.968;37.498;2023-04-30T00:43:11;100128.81;;;2.05;72.17
65546;BME280;52177;55.968;37.498;2023-04-30T00:43:41;100130.72;;;2.03;72.38
65546;BME280;52177;55.968;37.498;2023-04-30T00:44:11;100130.84;;;2.02;72.47
65546;BME280;52177;55.968;37.498;2023-04-30T00:44:42;100130.13;;;2.00;72.38
65546;BME280;52177;55.968;37.498;2023-04-30T00:45:12;100132.84;;;1.98;72.49
65546;BME280;52177;55.968;37.498;2023-04-30T00:45:42;100133.81;;;1.97;72.44
65546;BME280;52177;55.968;37.498;2023-04-30T00:46:13;100137.28;;;1.98;72.25
65546;BME280;52177;55.968;37.498;2023-04-30T00:46:43;100141.69;;;1.97;72.27
65546;BME280;52177;55.968;37.498;2023-04-30T00:47:14;100136.53;;;1.96;72.14
65546;BME280;52177;55.968;37.498;2023-04-30T00:47:44;100140.13;;;1.95;72.31
65546;BME280;52177;55.968;37.498;2023-04-30T00:48:15;100139.28;;;1.94;72.46
65546;BME280;52177;55.968;37.498;2023-04-30T00:48:45;100141.81;;;1.96;72.52
65546;BME280;52177;55.968;37.498;2023-04-30T00:49:16;100140.97;;;1.95;72.18
65546;BME280;52177;55.968;37.498;2023-04-30T00:49:46;100146.31;;;1.94;72.19
65546;BME280;52177;55.968;37.498;2023-04-30T00:50:17;100142.13;;;1.91;72.06
65546;BME280;52177;55.968;37.498;2023-04-30T00:50:47;100141.41;;;1.89;72.17
65546;BME280;52177;55.968;37.498;2023-04-30T00:51:18;100138.91;;;1.87;72.21
65546;BME280;52177;55.968;37.498;2023-04-30T00:51:48;100139.81;;;1.86;72.20
65546;BME280;52177;55.968;37.498;2023-04-30T00:52:20;100142.47;;;1.86;72.19
65546;BME280;52177;55.968;37.498;2023-04-30T00:52:50;100133.63;;;1.87;72.16
65546;BME280;52177;55.968;37.498;2023-04-30T00:53:20;100137.94;;;1.88;72.16
65546;BME280;52177;55.968;37.498;2023-04-30T00:53:51;100137.94;;;1.88;72.21
65546;BME280;52177;55.968;37.498;2023-04-30T00:54:22;100136.13;;;1.89;72.18
65546;BME280;52177;55.968;37.498;2023-04-30T00:54:53;100143.19;;;1.88;72.07
65546;BME280;52177;55.968;37.498;2023-04-30T00:55:24;100139.00;;;1.86;72.26
65546;BME280;52177;55.968;37.498;2023-04-30T00:55:55;100136.47;;;1.84;72.48
65546;BME280;52177;55.968;37.498;2023-04-30T00:56:26;100141.84;;;1.83;72.58
65546;BME280;52177;55.968;37.498;2023-04-30T00:56:57;100144.47;;;1.83;72.83
65546;BME280;52177;55.968;37.498;2023-04-30T00:57:28;100146.25;;;1.82;72.94
65546;BME280;52177;55.968;37.498;2023-04-30T00:57:59;100134.91;;;1.82;72.79
65546;BME280;52177;55.968;37.498;2023-04-30T00:58:30;100135.03;;;1.80;72.78
65546;BME280;52177;55.968;37.498;2023-04-30T00:59:00;100140.16;;;1.82;72.55
65546;BME280;52177;55.968;37.498;2023-04-30T00:59:31;100137.53;;;1.82;72.58
65546;BME280;52177;55.968;37.498;2023-04-30T01:00:02;100144.47;;;1.83;72.37
65546;BME280;52177;55.968;37.498;2023-04-30T01:00:33;100137.53;;;1.82;72.18
65546;BME280;52177;55.968;37.498;2023-04-30T01:01:04;100129.63;;;1.82;72.18
65546;BME280;52177;55.968;37.498;2023-04-30T01:01:36;100133.97;;;1.83;72.18
65546;BME280;52177;55.968;37.498;2023-04-30T01:02:06;100136.47;;;1.84;72.21
65546;BME280;52177;55.968;37.498;2023-04-30T01:02:37;100133.84;;;1.84;72.10
65546;BME280;52177;55.968;37.498;2023-04-30T01:03:07;100139.09;;;1.84;72.14
65546;BME280;52177;55.968;37.498;2023-04-30T01:03:38;100132.03;;;1.85;72.09
65546;BME280;52177;55.968;37.498;2023-04-30T01:04:09;100132.91;;;1.85;72.08
65546;BME280;52177;55.968;37.498;2023-04-30T01:04:39;100134.66;;;1.85;72.15
65546;BME280;52177;55.968;37.498;2023-04-30T01:05:10;100133.75;;;1.86;72.17
65546;BME280;52177;55.968;37.498;2023-04-30T01:05:41;100126.69;;;1.86;72.15
65546;BME280;52177;55.968;37.498;2023-04-30T01:06:11;100129.31;;;1.86;72.16
65546;BME280;52177;55.968;37.498;2023-04-30T01:06:42;100126.78;;;1.85;72.06
65546;BME280;52177;55.968;37.498;2023-04-30T01:07:12;100128.47;;;1.86;72.09
65546;BME280;52177;55.968;37.498;2023-04-30T01:07:43;100127.66;;;1.85;72.21
65546;BME280;52177;55.968;37.498;2023-04-30T01:08:16;100130.28;;;1.85;72.19
65546;BME280;52177;55.968;37.498;2023-04-30T01:08:47;100129.41;;;1.85;72.25
65546;BME280;52177;55.968;37.498;2023-04-30T01:09:18;100135.63;;;1.84;72.21
65546;BME280;52177;55.968;37.498;2023-04-30T01:09:48;100123.44;;;1.83;72.17
65546;BME280;52177;55.968;37.498;2023-04-30T01:10:19;100124.53;;;1.80;72.18
65546;BME280;52177;55.968;37.498;2023-04-30T01:11:16;100123.66;;;1.80;72.16
65546;BME280;52177;55.968;37.498;2023-04-30T01:11:55;100122.81;;;1.79;72.31
65546;BME280;52177;55.968;37.498;2023-04-30T01:12:38;100128.06;;;1.79;72.07
65546;BME280;52177;55.968;37.498;2023-04-30T01:13:19;100125.44;;;1.79;72.00
65546;BME280;52177;55.968;37.498;2023-04-30T01:14:30;100129.88;;;1.79;72.03
65546;BME280;52177;55.968;37.498;2023-04-30T01:15:56;100132.72;;;1.76;71.90
65546;BME280;52177;55.968;37.498;2023-04-30T01:16:30;100131.88;;;1.75;71.95
65546;BME280;52177;55.968;37.498;2023-04-30T01:17:55;100138.00;;;1.76;71.94
65546;BME280;52177;55.968;37.498;2023-04-30T01:18:36;100134.50;;;1.75;71.98
65546;BME280;52177;55.968;37.498;2023-04-30T01:19:18;100138.91;;;1.75;71.88
65546;BME280;52177;55.968;37.498;2023-04-30T01:19:51;100144.81;;;1.78;72.00
65546;BME280;52177;55.968;37.498;2023-04-30T01:20:23;100139.66;;;1.77;71.89
65546;BME280;52177;55.968;37.498;2023-04-30T01:21:08;100140.47;;;1.77;71.90
65546;BME280;52177;55.968;37.498;2023-04-30T01:21:40;100145.75;;;1.77;71.79
65546;BME280;52177;55.968;37.498;2023-04-30T01:26:21;100135.88;;;1.68;72.25
65546;BME280;52177;55.968;37.498;2023-04-30T01:28:14;100142.69;;;1.71;72.06
65546;BME280;52177;55.968;37.498;2023-04-30T01:28:46;100145.34;;;1.71;71.92
65546;BME280;52177;55.968;37.498;2023-04-30T01:29:19;100136.50;;;1.72;71.84
65546;BME280;52177;55.968;37.498;2023-04-30T01:29:51;100139.88;;;1.74;71.90
65546;BME280;52177;55.968;37.498;2023-04-30T01:30:22;100141.53;;;1.75;71.83
65546;BME280;52177;55.968;37.498;2023-04-30T01:30:53;100137.13;;;1.75;71.64
65546;BME280;52177;55.968;37.498;2023-04-30T01:31:23;100143.25;;;1.76;71.69
65546;BME280;52177;55.968;37.498;2023-04-30T01:31:53;100134.50;;;1.75;71.72
65546;BME280;52177;55.968;37.498;2023-04-30T01:32:24;100139.75;;;1.75;71.67
65546;BME280;52177;55.968;37.498;2023-04-30T01:32:54;100145.97;;;1.74;71.82
65546;BME280;52177;55.968;37.498;2023-04-30T01:33:24;100142.59;;;1.72;71.99
65546;BME280;52177;55.968;37.498;2023-04-30T01:33:55;100141.88;;;1.70;72.23
65546;BME280;52177;55.968;37.498;2023-04-30T01:34:26;100135.88;;;1.68;72.59
65546;BME280;52177;55.968;37.498;2023-04-30T01:34:56;100139.34;;;1.68;72.65
65546;BME280;52177;55.968;37.498;2023-04-30T01:36:39;100144.94;;;1.64;72.78
65546;BME280;52177;55.968;37.498;2023-04-30T01:37:15;100145.06;;;1.62;72.85
65546;BME280;52177;55.968;37.498;2023-04-30T01:38:19;100141.78;;;1.59;73.03
65546;BME280;52177;55.968;37.498;2023-04-30T01:40:23;100141.28;;;1.54;73.54
65546;BME280;52177;55.968;37.498;2023-04-30T01:41:03;100149.25;;;1.52;73.60
65546;BME280;52177;55.968;37.498;2023-04-30T01:42:51;100138.13;;;1.48;73.04
65546;BME280;52177;55.968;37.498;2023-04-30T01:43:34;100138.22;;;1.47;73.04
65546;BME280;52177;55.968;37.498;2023-04-30T01:44:21;100145.19;;;1.48;73.07
65546;BME280;52177;55.968;37.498;2023-04-30T01:46:25;100152.75;;;1.40;73.13
65546;BME280;52177;55.968;37.498;2023-04-30T01:47:03;100148.66;;;1.36;73.00
65546;BME280;52177;55.968;37.498;2023-04-30T01:48:23;100141.13;;;1.31;73.30
65546;BME280;52177;55.968;37.498;2023-04-30T01:49:50;100147.06;;;1.33;73.44
65546;BME280;52177;55.968;37.498;2023-04-30T01:50:37;100141.63;;;1.36;73.53
65546;BME280;52177;55.968;37.498;2023-04-30T01:51:19;100150.25;;;1.38;73.33
65546;BME280;52177;55.968;37.498;2023-04-30T01:52:01;100148.44;;;1.39;73.76
65546;BME280;52177;55.968;37.498;2023-04-30T01:52:46;100143.06;;;1.40;73.99
65546;BME280;52177;55.968;37.498;2023-04-30T01:53:21;100143.06;;;1.40;73.97
65546;BME280;52177;55.968;37.498;2023-04-30T01:53:56;100147.50;;;1.40;73.92
65546;BME280;52177;55.968;37.498;2023-04-30T01:54:51;100140.56;;;1.39;74.01
65546;BME280;52177;55.968;37.498;2023-04-30T01:55:27;100140.56;;;1.39;74.06
65546;BME280;52177;55.968;37.498;2023-04-30T01:56:04;100146.88;;;1.36;74.22
65546;BME280;52177;55.968;37.498;2023-04-30T01:56:40;100143.50;;;1.34;74.15
65546;BME280;52177;55.968;37.498;2023-04-30T01:57:19;100140.97;;;1.33;74.28
65546;BME280;52177;55.968;37.498;2023-04-30T01:57:58;100141.94;;;1.32;74.32
65546;BME280;52177;55.968;37.498;2023-04-30T01:58:29;100142.88;;;1.31;74.48
65546;BME280;52177;55.968;37.498;2023-04-30T01:59:01;100150.75;;;1.31;74.64
65546;BME280;52177;55.968;37.498;2023-04-30T01:59:38;100143.75;;;1.31;74.73
65546;BME280;52177;55.968;37.498;2023-04-30T02:00:09;100148.88;;;1.33;74.83
65546;BME280;52177;55.968;37.498;2023-04-30T02:00:41;100138.34;;;1.33;74.78
65546;BME280;52177;55.968;37.498;2023-04-30T02:01:30;100144.44;;;1.33;74.86
65546;BME280;52177;55.968;37.498;2023-04-30T02:02:02;100140.97;;;1.33;74.77
65546;BME280;52177;55.968;37.498;2023-04-30T02:02:32;100143.63;;;1.33;74.82
65546;BME280;52177;55.968;37.498;2023-04-30T02:03:03;100140.97;;;1.33;74.73
65546;BME280;52177;55.968;37.498;2023-04-30T02:03:33;100143.63;;;1.33;74.74
65546;BME280;52177;55.968;37.498;2023-04-30T02:04:03;100141.81;;;1.33;74.85
65546;BME280;52177;55.968;37.498;2023-04-30T02:04:34;100145.31;;;1.34;74.64
65546;BME280;52177;55.968;37.498;2023-04-30T02:05:05;100143.50;;;1.34;74.56
65546;BME280;52177;55.968;37.498;2023-04-30T02:05:36;100146.00;;;1.36;74.38
65546;BME280;52177;55.968;37.498;2023-04-30T02:06:06;100133.63;;;1.38;74.48
65546;BME280;52177;55.968;37.498;2023-04-30T02:06:37;100140.56;;;1.39;74.28
65546;BME280;52177;55.968;37.498;2023-04-30T02:07:07;100142.25;;;1.40;74.13
65546;BME280;52177;55.968;37.498;2023-04-30T02:07:42;100137.81;;;1.40;74.18
65546;BME280;52177;55.968;37.498;2023-04-30T02:08:13;100142.03;;;1.43;74.17
65546;BME280;52177;55.968;37.498;2023-04-30T02:08:44;100136.78;;;1.43;74.00
65546;BME280;52177;55.968;37.498;2023-04-30T02:09:14;100135.84;;;1.44;74.04
65546;BME280;52177;55.968;37.498;2023-04-30T02:09:45;100141.81;;;1.46;73.84
65546;BME280;52177;55.968;37.498;2023-04-30T02:10:16;100139.94;;;1.48;73.84
65546;BME280;52177;55.968;37.498;2023-04-30T02:10:47;100137.31;;;1.48;73.70
65546;BME280;52177;55.968;37.498;2023-04-30T02:11:17;100136.34;;;1.49;73.70
65546;BME280;52177;55.968;37.498;2023-04-30T02:11:47;100130.16;;;1.50;73.55
65546;BME280;52177;55.968;37.498;2023-04-30T02:12:18;100137.91;;;1.52;73.39
65546;BME280;52177;55.968;37.498;2023-04-30T02:12:48;100140.53;;;1.52;73.30
65546;BME280;52177;55.968;37.498;2023-04-30T02:13:18;100139.69;;;1.51;73.40
65546;BME280;52177;55.968;37.498;2023-04-30T02:13:49;100134.34;;;1.53;73.24
65546;BME280;52177;55.968;37.498;2023-04-30T02:14:20;100137.91;;;1.52;73.18
65546;BME280;52177;55.968;37.498;2023-04-30T02:14:50;100137.06;;;1.51;73.21
65546;BME280;52177;55.968;37.498;2023-04-30T02:15:20;100136.34;;;1.49;73.34
65546;BME280;52177;55.968;37.498;2023-04-30T02:15:51;100135.50;;;1.48;73.46
65546;BME280;52177;55.968;37.498;2023-04-30T02:16:22;100137.31;;;1.48;73.41
65546;BME280;52177;55.968;37.498;2023-04-30T02:16:52;100138.97;;;1.49;73.44
65546;BME280;52177;55.968;37.498;2023-04-30T02:17:22;100138.97;;;1.49;73.52
65546;BME280;52177;55.968;37.498;2023-04-30T02:17:52;100143.28;;;1.50;73.38
65546;BME280;52177;55.968;37.498;2023-04-30T02:18:23;100137.06;;;1.51;73.54
65546;BME280;52177;55.968;37.498;2023-04-30T02:18:53;100136.13;;;1.52;73.29
65546;BME280;52177;55.968;37.498;2023-04-30T02:19:24;100141.38;;;1.52;73.28
65546;BME280;52177;55.968;37.498;2023-04-30T02:19:54;100134.22;;;1.54;73.43
65546;BME280;52177;55.968;37.498;2023-04-30T02:20:24;100135.09;;;1.55;73.35
65546;BME280;52177;55.968;37.498;2023-04-30T02:20:55;100138.41;;;1.57;73.30
65546;BME280;52177;55.968;37.498;2023-04-30T02:21:25;100135.91;;;1.55;73.33
65546;BME280;52177;55.968;37.498;2023-04-30T02:21:56;100129.72;;;1.56;73.37
65546;BME280;52177;55.968;37.498;2023-04-30T02:22:27;100133.16;;;1.57;73.32
65546;BME280;52177;55.968;37.498;2023-04-30T02:22:57;100129.72;;;1.56;73.46
65546;BME280;52177;55.968;37.498;2023-04-30T02:23:27;100136.75;;;1.56;73.30
65546;BME280;52177;55.968;37.498;2023-04-30T02:23:58;100139.28;;;1.57;73.32
65546;BME280;52177;55.968;37.498;2023-04-30T02:24:28;100136.66;;;1.57;73.27
65546;BME280;52177;55.968;37.498;2023-04-30T02:24:59;100131.28;;;1.59;73.32
65546;BME280;52177;55.968;37.498;2023-04-30T02:25:29;100135.59;;;1.60;73.21
65546;BME280;52177;55.968;37.498;2023-04-30T02:26:02;100129.38;;;1.61;73.14
65546;BME280;52177;55.968;37.498;2023-04-30T02:26:32;100132.75;;;1.63;73.07
65546;BME280;52177;55.968;37.498;2023-04-30T02:27:02;100130.03;;;1.64;73.11
65546;BME280;52177;55.968;37.498;2023-04-30T02:27:33;100129.78;;;1.67;73.03
65546;BME280;52177;55.968;37.498;2023-04-30T02:28:03;100124.44;;;1.69;73.04
65546;BME280;52177;55.968;37.498;2023-04-30T02:28:34;100126.19;;;1.68;73.13
65546;BME280;52177;55.968;37.498;2023-04-30T02:29:05;100125.28;;;1.69;73.05
65546;BME280;52177;55.968;37.498;2023-04-30T02:29:35;100129.47;;;1.72;73.13
65546;BME280;52177;55.968;37.498;2023-04-30T02:30:06;100125.03;;;1.73;73.20
65546;BME280;52177;55.968;37.498;2023-04-30T02:30:36;100119.78;;;1.73;72.92
65546;BME280;52177;55.968;37.498;2023-04-30T02:31:07;100125.78;;;1.75;73.06
65546;BME280;52177;55.968;37.498;2023-04-30T02:31:37;100129.38;;;1.74;72.91
65546;BME280;52177;55.968;37.498;2023-04-30T02:32:07;100125.78;;;1.75;73.00
65546;BME280;52177;55.968;37.498;2023-04-30T02:32:38;100115.25;;;1.75;73.08
65546;BME280;52177;55.968;37.498;2023-04-30T02:33:08;100116.09;;;1.75;73.03
65546;BME280;52177;55.968;37.498;2023-04-30T02:33:41;100124.84;;;1.76;73.31
65546;BME280;52177;55.968;37.498;2023-04-30T02:34:11;100116.09;;;1.75;73.25
65546;BME280;52177;55.968;37.498;2023-04-30T02:34:42;100123.88;;;1.77;73.25
65546;BME280;52177;55.968;37.498;2023-04-30T02:35:12;100119.47;;;1.77;73.27
65546;BME280;52177;55.968;37.498;2023-04-30T02:35:42;100121.97;;;1.79;73.20
65546;BME280;52177;55.968;37.498;2023-04-30T02:36:13;100122.81;;;1.79;73.34
65546;BME280;52177;55.968;37.498;2023-04-30T02:36:43;100113.13;;;1.80;73.29
65546;BME280;52177;55.968;37.498;2023-04-30T02:37:14;100117.47;;;1.81;73.20
65546;BME280;52177;55.968;37.498;2023-04-30T02:37:44;100123.66;;;1.80;73.23
65546;BME280;52177;55.968;37.498;2023-04-30T02:38:15;100121.75;;;1.82;73.25
65546;BME280;52177;55.968;37.498;2023-04-30T02:38:45;100119.88;;;1.84;73.16
65546;BME280;52177;55.968;37.498;2023-04-30T02:39:15;100116.28;;;1.85;73.12
65546;BME280;52177;55.968;37.498;2023-04-30T02:39:46;100117.00;;;1.87;73.09
65546;BME280;52177;55.968;37.498;2023-04-30T02:40:16;100119.53;;;1.88;73.14
65546;BME280;52177;55.968;37.498;2023-04-30T02:40:46;100123.00;;;1.89;73.08
65546;BME280;52177;55.968;37.498;2023-04-30T02:41:17;100115.84;;;1.91;73.10
65546;BME280;52177;55.968;37.498;2023-04-30T02:41:50;100121.00;;;1.93;73.10
65546;BME280;52177;55.968;37.498;2023-04-30T02:42:20;100124.34;;;1.95;73.15
65546;BME280;52177;55.968;37.498;2023-04-30T02:42:51;100120.75;;;1.96;73.11
65546;BME280;52177;55.968;37.498;2023-04-30T02:43:24;100118.88;;;1.98;73.01
65546;BME280;52177;55.968;37.498;2023-04-30T02:43:54;100119.69;;;1.98;73.16
65546;BME280;52177;55.968;37.498;2023-04-30T02:44:25;100119.59;;;2.00;73.25
65546;BME280;52177;55.968;37.498;2023-04-30T02:44:55;100127.34;;;2.01;73.11
65546;BME280;52177;55.968;37.498;2023-04-30T02:45:26;100119.38;;;2.03;73.23
65546;BME280;52177;55.968;37.498;2023-04-30T02:45:56;100114.94;;;2.03;73.24
65546;BME280;52177;55.968;37.498;2023-04-30T02:46:26;100124.41;;;2.06;73.19
65546;BME280;52177;55.968;37.498;2023-04-30T02:46:57;100119.13;;;2.06;73.29
65546;BME280;52177;55.968;37.498;2023-04-30T02:47:27;100119.03;;;2.07;73.26
65546;BME280;52177;55.968;37.498;2023-04-30T02:47:57;100113.69;;;2.09;73.15
65546;BME280;52177;55.968;37.498;2023-04-30T02:48:28;100113.53;;;2.10;73.19
65546;BME280;52177;55.968;37.498;2023-04-30T02:48:58;100116.06;;;2.12;73.18
65546;BME280;52177;55.968;37.498;2023-04-30T02:49:28;100112.50;;;2.13;73.12
65546;BME280;52177;55.968;37.498;2023-04-30T02:49:59;100118.47;;;2.15;73.27
65546;BME280;52177;55.968;37.498;2023-04-30T02:50:29;100117.63;;;2.15;73.24
65546;BME280;52177;55.968;37.498;2023-04-30T02:50:59;100115.75;;;2.17;73.36
65546;BME280;52177;55.968;37.498;2023-04-30T02:51:30;100112.28;;;2.16;73.42
65546;BME280;52177;55.968;37.498;2023-04-30T02:52:01;100107.00;;;2.16;73.56
65546;BME280;52177;55.968;37.498;2023-04-30T02:52:32;100112.13;;;2.18;73.67
65546;BME280;52177;55.968;37.498;2023-04-30T02:53:02;100107.59;;;2.20;73.77
65546;BME280;52177;55.968;37.498;2023-04-30T02:53:33;100110.97;;;2.22;73.75
65546;BME280;52177;55.968;37.498;2023-04-30T02:54:03;100112.66;;;2.23;73.82
65546;BME280;52177;55.968;37.498;2023-04-30T02:54:33;100114.22;;;2.25;73.78
65546;BME280;52177;55.968;37.498;2023-04-30T02:55:04;100109.69;;;2.27;73.89
65546;BME280;52177;55.968;37.498;2023-04-30T02:55:35;100120.94;;;2.29;73.85
65546;BME280;52177;55.968;37.498;2023-04-30T02:56:05;100115.69;;;2.29;73.88
65546;BME280;52177;55.968;37.498;2023-04-30T02:56:36;100114.63;;;2.32;74.02
65546;BME280;52177;55.968;37.498;2023-04-30T02:57:08;100113.66;;;2.33;74.13
65546;BME280;52177;55.968;37.498;2023-04-30T02:57:38;100111.03;;;2.33;74.19
65546;BME280;52177;55.968;37.498;2023-04-30T02:58:09;100108.28;;;2.35;74.33
65546;BME280;52177;55.968;37.498;2023-04-30T02:58:39;100112.47;;;2.37;74.42
65546;BME280;52177;55.968;37.498;2023-04-30T02:59:10;100116.69;;;2.40;74.45
65546;BME280;52177;55.968;37.498;2023-04-30T02:59:40;100106.06;;;2.41;74.58
65546;BME280;52177;55.968;37.498;2023-04-30T03:00:14;100116.44;;;2.43;74.49
65546;BME280;52177;55.968;37.498;2023-04-30T03:00:45;100113.69;;;2.44;74.58
65546;BME280;52177;55.968;37.498;2023-04-30T03:01:15;100106.63;;;2.45;74.73